createdAt,value
2017-07-05T00:02:25.650Z,4.17
2017-07-05T00:04:53.210Z,4.00
2017-07-05T00:07:20.769Z,3.60
2017-07-05T00:09:48.334Z,4.63
2017-07-05T00:12:15.890Z,3.90
2017-07-05T00:14:43.450Z,3.80
2017-07-05T00:17:11.012Z,3.93
2017-07-05T00:19:38.520Z,5.57
2017-07-05T00:22:06.845Z,4.33
2017-07-05T00:24:34.389Z,3.40
2017-07-05T00:27:01.970Z,3.30
2017-07-05T00:29:29.490Z,4.50
2017-07-05T00:31:57.078Z,4.10
2017-07-05T00:34:24.637Z,4.70
2017-07-05T00:36:52.198Z,3.87
2017-07-05T00:39:19.715Z,3.70
2017-07-05T00:41:48.001Z,5.03
2017-07-05T00:44:16.409Z,4.70
2017-07-05T00:46:43.917Z,3.90
2017-07-05T00:49:11.541Z,4.53
2017-07-05T00:51:39.080Z,4.37
2017-07-05T00:54:06.646Z,4.40
2017-07-05T00:56:34.313Z,4.40
2017-07-05T00:59:01.864Z,4.47
2017-07-05T01:01:29.430Z,4.33
2017-07-05T01:03:56.984Z,4.37
2017-07-05T01:06:24.573Z,4.60
2017-07-05T01:08:52.202Z,4.50
2017-07-05T01:11:19.733Z,4.30
2017-07-05T01:13:47.321Z,4.63
2017-07-05T01:16:14.837Z,4.00
2017-07-05T01:18:43.181Z,4.50
2017-07-05T01:21:10.725Z,4.53
2017-07-05T01:23:38.270Z,4.93
2017-07-05T01:26:05.790Z,5.23
2017-07-05T01:28:34.105Z,4.77
2017-07-05T01:31:01.664Z,4.67
2017-07-05T01:33:29.230Z,4.50
2017-07-05T01:35:56.742Z,4.77
2017-07-05T01:38:25.057Z,5.00
2017-07-05T01:40:52.615Z,4.40
2017-07-05T01:43:20.173Z,4.53
2017-07-05T01:45:47.714Z,4.60
2017-07-05T01:48:15.292Z,4.47
2017-07-05T01:50:42.853Z,4.50
2017-07-05T01:53:10.409Z,5.13
2017-07-05T01:55:37.975Z,4.80
2017-07-05T01:58:05.524Z,4.37
2017-07-05T02:00:33.088Z,4.63
2017-07-05T02:03:00.598Z,4.17
2017-07-05T02:05:28.213Z,4.67
2017-07-05T02:07:55.737Z,4.00
2017-07-05T02:10:23.321Z,4.73
2017-07-05T02:12:50.881Z,4.83
2017-07-05T02:15:18.442Z,4.47
2017-07-05T02:17:45.953Z,4.47
2017-07-05T02:20:14.274Z,4.83
2017-07-05T02:22:42.133Z,4.10
2017-07-05T02:25:09.641Z,4.90
2017-07-05T02:27:37.260Z,4.77
2017-07-05T02:30:04.818Z,5.20
2017-07-05T02:32:32.374Z,5.47
2017-07-05T02:34:59.933Z,5.03
2017-07-05T02:37:27.490Z,4.60
2017-07-05T02:39:55.055Z,5.23
2017-07-05T02:42:22.610Z,5.57
2017-07-05T02:44:50.174Z,5.87
2017-07-05T02:47:17.932Z,6.03
2017-07-05T02:49:45.494Z,4.80
2017-07-05T02:52:13.049Z,5.13
2017-07-05T02:54:40.615Z,4.97
2017-07-05T02:57:08.135Z,5.47
2017-07-05T02:59:36.544Z,5.90
2017-07-05T03:02:04.103Z,5.50
2017-07-05T03:04:31.660Z,6.33
2017-07-05T03:06:59.225Z,5.67
2017-07-05T03:09:26.881Z,5.73
2017-07-05T03:11:54.442Z,5.70
2017-07-05T03:14:22.000Z,5.50
2017-07-05T03:16:49.561Z,5.97
2017-07-05T03:19:17.113Z,5.17
2017-07-05T03:21:44.629Z,5.17
2017-07-05T03:24:12.178Z,5.43
2017-07-05T03:26:39.693Z,5.70
2017-07-05T03:29:07.249Z,5.50
2017-07-05T03:31:34.771Z,6.00
2017-07-05T03:34:03.078Z,6.00
2017-07-05T03:36:30.657Z,5.90
2017-07-05T03:38:58.222Z,5.23
2017-07-05T03:41:25.741Z,5.50
2017-07-05T03:43:53.315Z,5.87
2017-07-05T03:46:20.877Z,5.30
2017-07-05T03:48:48.414Z,5.10
2017-07-05T03:51:15.994Z,5.30
2017-07-05T03:53:43.553Z,5.83
2017-07-05T03:56:11.111Z,6.03
2017-07-05T03:58:38.673Z,5.50
2017-07-05T04:01:06.338Z,5.77
2017-07-05T04:03:33.893Z,6.20
2017-07-05T04:06:01.409Z,5.03
2017-07-05T04:08:29.730Z,5.70
2017-07-05T04:10:57.278Z,6.60
2017-07-05T04:13:24.844Z,7.07
2017-07-05T04:15:52.401Z,5.80
2017-07-05T04:18:19.962Z,5.17
2017-07-05T04:20:47.478Z,5.03
2017-07-05T04:23:15.798Z,5.03
2017-07-05T04:25:43.341Z,6.07
2017-07-05T04:28:10.914Z,5.43
2017-07-05T04:30:38.474Z,4.70
2017-07-05T04:33:06.041Z,7.37
2017-07-05T04:35:33.589Z,5.47
2017-07-05T04:38:01.148Z,5.20
2017-07-05T04:40:28.669Z,5.60
2017-07-05T04:42:56.993Z,5.80
2017-07-05T04:45:24.536Z,5.30
2017-07-05T04:47:52.049Z,4.50
2017-07-05T04:50:19.584Z,4.60
2017-07-05T04:52:47.118Z,5.97
2017-07-05T04:55:14.670Z,5.47
2017-07-05T04:57:42.234Z,4.70
2017-07-05T05:00:09.797Z,4.80
2017-07-05T05:02:37.345Z,5.30
2017-07-05T05:05:04.862Z,6.60
2017-07-05T05:07:33.144Z,5.00
2017-07-05T05:10:01.562Z,5.90
2017-07-05T05:12:29.119Z,5.73
2017-07-05T05:14:56.683Z,6.13
2017-07-05T05:17:24.242Z,4.50
2017-07-05T05:19:51.785Z,5.30
2017-07-05T05:22:19.353Z,5.03
2017-07-05T05:24:46.913Z,7.20
2017-07-05T05:27:14.449Z,7.20
2017-07-05T05:29:41.966Z,5.90
2017-07-05T05:32:09.581Z,5.00
2017-07-05T05:34:37.151Z,5.43
2017-07-05T05:37:04.680Z,6.93
2017-07-05T05:39:32.265Z,6.77
2017-07-05T05:41:59.786Z,8.93
2017-07-05T05:44:28.088Z,7.03
2017-07-05T05:46:55.657Z,6.50
2017-07-05T05:49:23.177Z,5.87
2017-07-05T05:51:51.496Z,6.33
2017-07-05T05:54:19.049Z,6.03
2017-07-05T05:56:46.613Z,6.03
2017-07-05T05:59:14.129Z,6.03
2017-07-05T06:01:42.418Z,5.17
2017-07-05T06:04:10.004Z,5.87
2017-07-05T06:06:37.522Z,5.60
2017-07-05T06:09:05.836Z,5.97
2017-07-05T06:11:33.394Z,6.90
2017-07-05T06:14:00.954Z,4.87
2017-07-05T06:16:28.617Z,4.93
2017-07-05T06:18:56.253Z,5.50
2017-07-05T06:21:23.838Z,4.77
2017-07-05T06:23:51.395Z,5.57
2017-07-05T06:26:18.962Z,5.10
2017-07-05T06:28:46.613Z,6.33
2017-07-05T06:31:14.174Z,5.57
2017-07-05T06:33:41.759Z,5.40
2017-07-05T06:36:09.269Z,5.57
2017-07-05T06:38:36.790Z,6.40
2017-07-05T06:41:04.414Z,5.40
2017-07-05T06:43:31.965Z,5.80
2017-07-05T06:45:59.526Z,6.60
2017-07-05T06:48:27.082Z,6.10
2017-07-05T06:50:54.645Z,6.90
2017-07-05T06:53:22.301Z,6.60
2017-07-05T06:55:49.822Z,7.20
2017-07-05T06:58:18.105Z,6.87
2017-07-05T07:00:46.410Z,6.40
2017-07-05T07:03:13.929Z,5.50
2017-07-05T07:05:42.275Z,5.70
2017-07-05T07:08:09.808Z,6.10
2017-07-05T07:10:37.366Z,5.90
2017-07-05T07:13:04.937Z,5.47
2017-07-05T07:15:32.454Z,6.40
2017-07-05T07:17:59.985Z,6.30
2017-07-05T07:20:27.506Z,6.47
2017-07-05T07:22:55.060Z,6.03
2017-07-05T07:25:22.613Z,7.30
2017-07-05T07:27:50.184Z,6.10
2017-07-05T07:30:17.833Z,7.63
2017-07-05T07:32:45.393Z,5.30
2017-07-05T07:35:12.950Z,5.00
2017-07-05T07:37:40.516Z,5.93
2017-07-05T07:40:08.069Z,5.73
2017-07-05T07:42:35.625Z,4.70
2017-07-05T07:45:03.194Z,5.40
2017-07-05T07:47:30.749Z,6.70
2017-07-05T07:49:58.272Z,5.70
2017-07-05T07:52:25.852Z,6.40
2017-07-05T07:54:53.427Z,5.50
2017-07-05T07:57:20.982Z,4.20
2017-07-05T07:59:48.505Z,5.30
2017-07-05T08:02:16.849Z,6.00
2017-07-05T08:04:44.446Z,4.57
2017-07-05T08:07:11.985Z,4.70
2017-07-05T08:09:40.282Z,5.10
2017-07-05T08:12:07.866Z,4.90
2017-07-05T08:14:35.384Z,5.20
2017-07-05T08:17:03.704Z,5.07
2017-07-05T08:19:31.266Z,8.97
2017-07-05T08:21:58.818Z,5.47
2017-07-05T08:24:26.381Z,4.50
2017-07-05T08:26:53.920Z,4.23
2017-07-05T08:29:21.489Z,3.83
2017-07-05T08:31:49.058Z,3.67
2017-07-05T08:34:16.618Z,4.23
2017-07-05T08:36:44.273Z,4.33
2017-07-05T08:39:11.831Z,10.67
2017-07-05T08:41:39.350Z,6.10
2017-07-05T08:44:08.226Z,4.17
2017-07-05T08:46:36.052Z,5.40
2017-07-05T08:49:03.894Z,4.77
2017-07-05T08:51:31.677Z,4.47
2017-07-05T08:53:59.337Z,4.00
2017-07-05T08:56:26.997Z,3.13
2017-07-05T08:58:54.555Z,3.77
2017-07-05T09:01:22.113Z,3.80
2017-07-05T09:03:49.624Z,3.10
2017-07-05T09:06:17.238Z,4.20
2017-07-05T09:08:44.793Z,3.37
2017-07-05T09:11:12.454Z,3.43
2017-07-05T09:13:40.006Z,3.77
2017-07-05T09:16:07.674Z,2.87
2017-07-05T09:18:35.274Z,3.17
2017-07-05T09:21:02.800Z,2.90
2017-07-05T09:23:30.349Z,3.37
2017-07-05T09:25:57.910Z,2.70
2017-07-05T09:28:25.606Z,2.93
2017-07-05T09:30:53.538Z,2.07
2017-07-05T09:33:21.261Z,2.00
2017-07-05T09:35:49.662Z,2.20
2017-07-05T09:38:17.238Z,2.50
2017-07-05T09:40:44.903Z,3.03
2017-07-05T09:43:12.562Z,2.13
2017-07-05T09:45:40.082Z,2.60
2017-07-05T09:48:08.371Z,2.57
2017-07-05T09:50:35.953Z,2.30
2017-07-05T09:53:03.512Z,2.70
2017-07-05T09:55:31.021Z,2.80
2017-07-05T09:57:59.339Z,3.10
2017-07-05T10:00:26.993Z,2.60
2017-07-05T10:02:54.718Z,3.03
2017-07-05T10:05:22.332Z,2.20
2017-07-05T10:07:50.137Z,2.77
2017-07-05T10:10:17.653Z,2.87
2017-07-05T10:12:45.314Z,2.53
2017-07-05T10:15:12.921Z,2.40
2017-07-05T10:17:40.667Z,2.43
2017-07-05T10:20:08.405Z,2.57
2017-07-05T10:22:36.061Z,2.53
2017-07-05T10:25:03.625Z,2.83
2017-07-05T10:27:31.186Z,2.77
2017-07-05T10:29:58.739Z,2.67
2017-07-05T10:32:26.298Z,2.70
2017-07-05T10:34:54.053Z,2.50
2017-07-05T10:37:21.891Z,3.13
2017-07-05T10:39:50.277Z,2.93
2017-07-05T10:42:18.667Z,2.73
2017-07-05T10:44:46.452Z,2.40
2017-07-05T10:47:14.004Z,1.97
2017-07-05T10:49:41.668Z,2.93
2017-07-05T10:52:09.201Z,2.47
2017-07-05T10:54:37.502Z,2.40
2017-07-05T10:57:05.009Z,2.83
2017-07-05T10:59:32.723Z,2.60
2017-07-05T11:02:00.365Z,2.93
2017-07-05T11:04:28.046Z,2.70
2017-07-05T11:06:55.708Z,2.30
2017-07-05T11:09:23.270Z,2.30
2017-07-05T11:11:50.809Z,2.30
2017-07-05T11:14:18.355Z,2.60
2017-07-05T11:16:45.957Z,2.60
2017-07-05T11:19:13.477Z,2.60
2017-07-05T11:21:41.061Z,2.77
2017-07-05T11:24:08.582Z,2.63
2017-07-05T11:26:36.999Z,3.30
2017-07-05T11:29:04.524Z,3.20
2017-07-05T11:31:32.838Z,2.80
2017-07-05T11:34:00.365Z,3.73
2017-07-05T11:36:27.952Z,3.07
2017-07-05T11:38:55.504Z,3.50
2017-07-05T11:41:23.067Z,2.87
2017-07-05T11:43:50.597Z,2.90
2017-07-05T11:46:18.282Z,2.77
2017-07-05T11:48:45.849Z,3.00
2017-07-05T11:51:13.509Z,3.03
2017-07-05T11:53:41.213Z,2.80
2017-07-05T11:56:09.091Z,3.00
2017-07-05T11:58:37.429Z,3.13
2017-07-05T12:01:05.087Z,3.47
2017-07-05T12:03:32.633Z,2.43
2017-07-05T12:06:01.114Z,3.17
2017-07-05T12:08:28.776Z,3.50
2017-07-05T12:10:56.339Z,3.50
2017-07-05T12:13:23.873Z,3.73
2017-07-05T12:15:51.396Z,2.93
2017-07-05T12:18:18.910Z,2.50
2017-07-05T12:20:46.614Z,4.33
2017-07-05T12:23:14.138Z,3.50
2017-07-05T12:25:41.658Z,2.57
2017-07-05T12:28:09.174Z,2.50
2017-07-05T12:30:37.603Z,3.03
2017-07-05T12:33:05.153Z,3.70
2017-07-05T12:35:32.750Z,3.10
2017-07-05T12:38:00.299Z,3.93
2017-07-05T12:40:27.859Z,2.90
2017-07-05T12:42:55.422Z,2.90
2017-07-05T12:45:25.463Z,3.20
2017-07-05T12:47:53.113Z,2.80
2017-07-05T12:50:20.760Z,3.00
2017-07-05T12:52:48.317Z,4.40
2017-07-05T12:55:15.877Z,3.97
2017-07-05T12:57:43.435Z,3.50
2017-07-05T13:00:11.000Z,3.30
2017-07-05T13:02:38.560Z,4.30
2017-07-05T13:05:06.113Z,3.63
2017-07-05T13:07:33.622Z,3.27
2017-07-05T13:10:01.932Z,4.13
2017-07-05T13:12:29.510Z,3.20
2017-07-05T13:14:57.025Z,3.70
2017-07-05T13:17:25.342Z,3.90
2017-07-05T13:19:52.899Z,5.33
2017-07-05T13:22:20.450Z,4.37
2017-07-05T13:24:48.021Z,4.20
2017-07-05T13:27:15.537Z,4.20
2017-07-05T13:29:43.854Z,3.73
2017-07-05T13:32:11.365Z,4.30
2017-07-05T13:34:39.786Z,3.97
2017-07-05T13:37:07.306Z,4.30
2017-07-05T13:39:35.620Z,4.00
2017-07-05T13:42:03.177Z,4.23
2017-07-05T13:44:30.756Z,3.00
2017-07-05T13:46:58.394Z,3.00
2017-07-05T13:49:25.909Z,3.17
2017-07-05T13:51:53.512Z,3.33
2017-07-05T13:54:21.074Z,3.20
2017-07-05T13:56:48.634Z,3.30
2017-07-05T13:59:16.303Z,2.57
2017-07-05T14:01:43.857Z,2.93
2017-07-05T14:04:11.414Z,2.50
2017-07-05T14:06:38.974Z,4.00
2017-07-05T14:09:06.534Z,2.70
2017-07-05T14:11:34.294Z,2.87
2017-07-05T14:14:01.957Z,3.47
2017-07-05T14:16:29.519Z,2.57
2017-07-05T14:18:57.077Z,2.83
2017-07-05T14:21:24.635Z,3.30
2017-07-05T14:23:52.293Z,2.87
2017-07-05T14:26:19.810Z,2.13
2017-07-05T14:28:48.108Z,2.60
2017-07-05T14:31:15.686Z,2.70
2017-07-05T14:33:43.198Z,2.33
2017-07-05T14:36:11.521Z,2.70
2017-07-05T14:38:39.086Z,2.40
2017-07-05T14:41:06.640Z,2.20
2017-07-05T14:43:34.206Z,2.30
2017-07-05T14:46:01.966Z,2.67
2017-07-05T14:48:29.514Z,2.20
2017-07-05T14:50:57.088Z,2.00
2017-07-05T14:53:24.642Z,1.90
2017-07-05T14:55:52.200Z,1.63
2017-07-05T14:58:19.717Z,2.00
2017-07-05T15:00:48.137Z,2.30
2017-07-05T15:03:15.657Z,2.50
2017-07-05T15:05:43.969Z,2.03
2017-07-05T15:08:11.529Z,2.23
2017-07-05T15:10:39.088Z,2.30
2017-07-05T15:13:06.639Z,14.97
2017-07-05T15:15:34.209Z,3.07
2017-07-05T15:18:01.765Z,1.87
2017-07-05T15:20:29.319Z,2.20
2017-07-05T15:22:56.880Z,2.03
2017-07-05T15:25:24.427Z,2.37
2017-07-05T15:27:52.002Z,10.30
2017-07-05T15:30:19.557Z,2.97
2017-07-05T15:32:47.118Z,2.07
2017-07-05T15:35:14.779Z,2.10
2017-07-05T15:37:42.337Z,1.77
2017-07-05T15:40:09.898Z,2.47
2017-07-05T15:42:37.457Z,2.20
2017-07-05T15:45:04.986Z,1.70
2017-07-05T15:47:32.628Z,1.67
2017-07-05T15:50:00.232Z,1.97
2017-07-05T15:52:27.794Z,2.17
2017-07-05T15:54:55.353Z,2.13
2017-07-05T15:57:22.873Z,2.13
2017-07-05T15:59:51.166Z,1.77
2017-07-05T16:02:18.855Z,2.27
2017-07-05T16:04:46.382Z,2.27
2017-07-05T16:07:13.972Z,2.17
2017-07-05T16:09:41.497Z,2.10
2017-07-05T16:12:09.086Z,2.50
2017-07-05T16:14:37.486Z,2.13
2017-07-05T16:17:05.190Z,2.17
2017-07-05T16:19:33.685Z,2.40
2017-07-05T16:22:01.264Z,1.37
2017-07-05T16:24:28.825Z,1.73
2017-07-05T16:26:56.369Z,2.17
2017-07-05T16:29:23.886Z,2.33
2017-07-05T16:31:51.500Z,2.37
2017-07-05T16:34:19.104Z,2.37
2017-07-05T16:36:46.719Z,1.83
2017-07-05T16:39:14.290Z,2.20
2017-07-05T16:41:41.837Z,2.40
2017-07-05T16:44:09.396Z,2.17
2017-07-05T16:46:36.959Z,2.40
2017-07-05T16:49:04.514Z,2.00
2017-07-05T16:51:32.053Z,1.97
2017-07-05T16:53:59.573Z,2.33
2017-07-05T16:56:27.206Z,2.30
2017-07-05T16:58:54.753Z,2.07
2017-07-05T17:01:22.309Z,1.90
2017-07-05T17:03:49.854Z,2.47
2017-07-05T17:06:17.370Z,2.10
2017-07-05T17:08:44.887Z,2.00
2017-07-05T17:11:12.671Z,2.17
2017-07-05T17:13:40.610Z,3.00
2017-07-05T17:16:08.690Z,2.23
2017-07-05T17:18:36.261Z,2.00
2017-07-05T17:21:04.844Z,2.20
2017-07-05T17:23:32.573Z,2.40
2017-07-05T17:26:00.145Z,2.37
2017-07-05T17:28:27.781Z,2.07
2017-07-05T17:30:56.069Z,3.10
2017-07-05T17:33:23.650Z,2.27
2017-07-05T17:35:51.241Z,2.57
2017-07-05T17:38:18.878Z,2.10
2017-07-05T17:40:46.525Z,2.70
2017-07-05T17:43:14.093Z,2.60
2017-07-05T17:45:41.631Z,2.40
2017-07-05T17:48:14.745Z,2.20
2017-07-05T17:50:42.294Z,2.47
2017-07-05T17:53:09.829Z,2.97
2017-07-05T17:55:37.430Z,3.37
2017-07-05T17:58:04.974Z,3.30
2017-07-05T18:00:32.485Z,2.53
2017-07-05T18:03:00.813Z,2.50
2017-07-05T18:05:28.362Z,8.73
2017-07-05T18:07:55.882Z,4.47
2017-07-05T18:10:24.210Z,3.43
2017-07-05T18:12:51.760Z,2.67
2017-07-05T18:15:19.314Z,2.80
2017-07-05T18:17:46.869Z,2.70
2017-07-05T18:20:14.538Z,2.83
2017-07-05T18:22:42.199Z,5.47
2017-07-05T18:25:09.861Z,7.73
2017-07-05T18:27:37.588Z,3.97
2017-07-05T18:30:06.103Z,2.93
2017-07-05T18:32:33.655Z,3.57
2017-07-05T18:35:01.221Z,3.10
2017-07-05T18:37:28.879Z,3.50
2017-07-05T18:39:56.445Z,13.70
2017-07-05T18:42:23.999Z,7.10
2017-07-05T18:44:51.634Z,3.30
2017-07-05T18:47:19.149Z,3.30
2017-07-05T18:49:46.782Z,4.00
2017-07-05T18:52:14.311Z,5.57
2017-07-05T18:54:41.896Z,9.60
2017-07-05T18:57:09.442Z,8.37
2017-07-05T18:59:37.094Z,5.20
2017-07-05T19:02:04.674Z,4.03
2017-07-05T19:04:32.235Z,3.30
2017-07-05T19:06:59.758Z,5.70
2017-07-05T19:09:28.161Z,4.57
2017-07-05T19:11:55.727Z,5.07
2017-07-05T19:14:23.243Z,4.73
2017-07-05T19:16:51.562Z,4.07
2017-07-05T19:19:19.128Z,6.00
2017-07-05T19:21:46.783Z,8.63
2017-07-05T19:24:14.301Z,8.50
2017-07-05T19:26:42.616Z,5.57
2017-07-05T19:29:10.162Z,5.90
2017-07-05T19:31:37.942Z,4.33
2017-07-05T19:34:05.498Z,4.20
2017-07-05T19:36:33.025Z,8.77
2017-07-05T19:39:01.337Z,9.87
2017-07-05T19:41:28.869Z,9.00
2017-07-05T19:43:56.450Z,7.53
2017-07-05T19:46:24.013Z,4.63
2017-07-05T19:48:51.567Z,9.53
2017-07-05T19:51:19.130Z,5.60
2017-07-05T19:53:46.686Z,6.30
2017-07-05T19:56:14.349Z,9.73
2017-07-05T19:58:41.906Z,9.07
2017-07-05T20:01:09.421Z,8.47
2017-07-05T20:03:37.741Z,8.00
2017-07-05T20:06:05.263Z,9.10
2017-07-05T20:08:33.576Z,10.00
2017-07-05T20:11:01.137Z,8.43
2017-07-05T20:13:28.799Z,8.50
2017-07-05T20:15:56.662Z,9.40
2017-07-05T20:18:24.218Z,8.40
2017-07-05T20:20:51.739Z,7.80
2017-07-05T20:23:20.064Z,8.77
2017-07-05T20:25:47.608Z,7.90
2017-07-05T20:28:15.174Z,7.57
2017-07-05T20:30:42.731Z,7.90
2017-07-05T20:33:10.290Z,8.17
2017-07-05T20:35:37.853Z,8.27
2017-07-05T20:38:05.522Z,8.40
2017-07-05T20:40:33.069Z,8.03
2017-07-05T20:43:00.634Z,7.07
2017-07-05T20:45:28.190Z,7.70
2017-07-05T20:47:55.746Z,7.20
2017-07-05T20:50:23.307Z,8.60
2017-07-05T20:52:50.860Z,11.00
2017-07-05T20:55:18.422Z,7.87
2017-07-05T20:57:45.981Z,7.57
2017-07-05T21:00:13.546Z,8.00
2017-07-05T21:02:41.200Z,6.37
2017-07-05T21:05:08.761Z,5.03
2017-07-05T21:07:36.313Z,6.20
2017-07-05T21:10:03.871Z,6.00
2017-07-05T21:12:31.434Z,6.30
2017-07-05T21:14:59.197Z,5.37
2017-07-05T21:17:26.769Z,5.70
2017-07-05T21:19:54.281Z,5.10
2017-07-05T21:22:21.869Z,5.77
2017-07-05T21:24:49.385Z,5.30
2017-07-05T21:27:17.698Z,5.90
2017-07-05T21:29:45.215Z,5.80
2017-07-05T21:32:12.741Z,5.40
2017-07-05T21:34:40.264Z,6.77
2017-07-05T21:37:07.848Z,7.60
2017-07-05T21:39:36.185Z,7.33
2017-07-05T21:42:04.495Z,8.37
2017-07-05T21:44:32.054Z,6.90
2017-07-05T21:46:59.613Z,5.60
2017-07-05T21:49:27.125Z,6.23
2017-07-05T21:51:55.550Z,5.67
2017-07-05T21:54:23.062Z,5.80
2017-07-05T21:56:51.383Z,5.90
2017-07-05T21:59:18.937Z,6.30
2017-07-05T22:01:46.510Z,6.57
2017-07-05T22:04:14.162Z,6.30
2017-07-05T22:06:41.727Z,5.67
2017-07-05T22:09:09.242Z,5.63
2017-07-05T22:11:37.529Z,6.37
2017-07-05T22:14:05.113Z,6.67
2017-07-05T22:16:32.672Z,6.43
2017-07-05T22:19:00.189Z,6.10
2017-07-05T22:21:28.507Z,5.20
2017-07-05T22:23:56.028Z,6.00
2017-07-05T22:26:24.314Z,6.50
2017-07-05T22:28:51.866Z,5.80
2017-07-05T22:31:20.285Z,7.13
2017-07-05T22:33:47.884Z,7.03
2017-07-05T22:36:15.372Z,6.37
2017-07-05T22:38:42.890Z,7.07
2017-07-05T22:41:10.519Z,7.10
2017-07-05T22:43:38.075Z,7.63
2017-07-05T22:46:05.633Z,6.97
2017-07-05T22:48:33.196Z,7.87
2017-07-05T22:51:00.745Z,7.00
2017-07-05T22:53:28.310Z,6.80
2017-07-05T22:55:55.845Z,6.90
2017-07-05T22:58:23.386Z,6.30
2017-07-05T23:00:51.705Z,6.13
2017-07-05T23:03:19.273Z,6.10
2017-07-05T23:05:46.814Z,6.63
2017-07-05T23:08:14.325Z,6.63
2017-07-05T23:10:41.850Z,7.07
2017-07-05T23:13:09.394Z,6.73
2017-07-05T23:15:36.953Z,7.97
2017-07-05T23:18:04.497Z,7.70
2017-07-05T23:20:32.022Z,7.90
2017-07-05T23:23:00.354Z,9.90
2017-07-05T23:25:27.902Z,9.97
2017-07-05T23:27:55.466Z,11.30
2017-07-05T23:30:23.033Z,11.70
2017-07-05T23:32:50.586Z,10.90
2017-07-05T23:35:18.146Z,9.73
2017-07-05T23:37:45.674Z,10.00
2017-07-05T23:40:13.194Z,11.33
2017-07-05T23:42:40.825Z,10.87
2017-07-05T23:45:08.375Z,11.17
2017-07-05T23:47:35.931Z,11.00
2017-07-05T23:50:03.493Z,11.20
2017-07-05T23:52:31.056Z,11.83
2017-07-05T23:54:58.713Z,10.30
2017-07-05T23:57:26.271Z,10.40
2017-07-05T23:59:53.828Z,9.63
